sensor_id;sensor_type;location;lat;lon;timestamp;P1;durP1;ratioP1;P2;durP2;ratioP2
27642;SDS011;15053;48.618;10.024;2023-06-04T00:00:08;5.47;;;3.47;;
27642;SDS011;15053;48.618;10.024;2023-06-04T00:02:36;4.88;;;3.47;;
27642;SDS011;15053;48.618;10.024;2023-06-04T00:05:02;13.85;;;3.83;;
27642;SDS011;15053;48.618;10.024;2023-06-04T00:07:29;5.55;;;3.67;;
27642;SDS011;15053;48.618;10.024;2023-06-04T00:09:56;7.57;;;3.28;;
27642;SDS011;15053;48.618;10.024;2023-06-04T00:12:22;6.25;;;3.67;;
27642;SDS011;15053;48.618;10.024;2023-06-04T00:14:49;7.40;;;3.42;;
27642;SDS011;15053;48.618;10.024;2023-06-04T00:17:15;4.90;;;3.10;;
27642;SDS011;15053;48.618;10.024;2023-06-04T00:19:42;4.60;;;3.20;;
27642;SDS011;15053;48.618;10.024;2023-06-04T00:22:08;5.03;;;3.22;;
27642;SDS011;15053;48.618;10.024;2023-06-04T00:24:37;7.07;;;3.40;;
27642;SDS011;15053;48.618;10.024;2023-06-04T00:27:07;6.38;;;3.08;;
27642;SDS011;15053;48.618;10.024;2023-06-04T00:29:34;4.03;;;3.15;;
27642;SDS011;15053;48.618;10.024;2023-06-04T00:32:02;4.60;;;3.03;;
27642;SDS011;15053;48.618;10.024;2023-06-04T00:34:29;3.70;;;2.65;;
27642;SDS011;15053;48.618;10.024;2023-06-04T00:36:56;4.95;;;3.40;;
27642;SDS011;15053;48.618;10.024;2023-06-04T00:39:23;5.35;;;3.15;;
27642;SDS011;15053;48.618;10.024;2023-06-04T00:41:49;7.25;;;2.95;;
27642;SDS011;15053;48.618;10.024;2023-06-04T00:44:16;4.70;;;2.97;;
27642;SDS011;15053;48.618;10.024;2023-06-04T00:46:43;4.80;;;2.47;;
27642;SDS011;15053;48.618;10.024;2023-06-04T00:49:11;3.63;;;2.47;;
27642;SDS011;15053;48.618;10.024;2023-06-04T00:51:38;4.07;;;2.85;;
27642;SDS011;15053;48.618;10.024;2023-06-04T00:54:06;5.05;;;3.08;;
27642;SDS011;15053;48.618;10.024;2023-06-04T00:56:36;4.25;;;2.97;;
27642;SDS011;15053;48.618;10.024;2023-06-04T00:59:06;4.50;;;2.60;;
27642;SDS011;15053;48.618;10.024;2023-06-04T01:01:37;4.28;;;2.60;;
27642;SDS011;15053;48.618;10.024;2023-06-04T01:04:15;3.65;;;2.80;;
27642;SDS011;15053;48.618;10.024;2023-06-04T01:06:50;3.70;;;2.58;;
27642;SDS011;15053;48.618;10.024;2023-06-04T01:09:20;6.32;;;2.50;;
27642;SDS011;15053;48.618;10.024;2023-06-04T01:11:47;6.28;;;2.70;;
27642;SDS011;15053;48.618;10.024;2023-06-04T01:14:13;4.80;;;2.92;;
27642;SDS011;15053;48.618;10.024;2023-06-04T01:22:04;4.13;;;2.53;;
27642;SDS011;15053;48.618;10.024;2023-06-04T01:24:49;6.07;;;3.40;;
27642;SDS011;15053;48.618;10.024;2023-06-04T01:27:22;5.68;;;2.58;;
27642;SDS011;15053;48.618;10.024;2023-06-04T01:29:49;6.30;;;2.80;;
27642;SDS011;15053;48.618;10.024;2023-06-04T01:32:17;5.75;;;2.30;;
27642;SDS011;15053;48.618;10.024;2023-06-04T01:34:44;4.00;;;2.90;;
27642;SDS011;15053;48.618;10.024;2023-06-04T01:37:12;4.55;;;2.58;;
27642;SDS011;15053;48.618;10.024;2023-06-04T01:39:39;3.42;;;2.25;;
27642;SDS011;15053;48.618;10.024;2023-06-04T01:42:07;4.05;;;2.42;;
27642;SDS011;15053;48.618;10.024;2023-06-04T01:44:34;6.13;;;2.63;;
27642;SDS011;15053;48.618;10.024;2023-06-04T01:47:00;4.18;;;2.58;;
27642;SDS011;15053;48.618;10.024;2023-06-04T01:49:27;5.40;;;2.55;;
27642;SDS011;15053;48.618;10.024;2023-06-04T01:51:54;5.95;;;2.30;;
27642;SDS011;15053;48.618;10.024;2023-06-04T01:54:22;4.07;;;2.35;;
27642;SDS011;15053;48.618;10.024;2023-06-04T01:56:49;5.43;;;2.70;;
27642;SDS011;15053;48.618;10.024;2023-06-04T01:59:15;3.75;;;2.25;;
27642;SDS011;15053;48.618;10.024;2023-06-04T02:01:42;7.07;;;2.50;;
27642;SDS011;15053;48.618;10.024;2023-06-04T02:04:09;5.80;;;2.70;;
27642;SDS011;15053;48.618;10.024;2023-06-04T02:06:35;4.57;;;3.03;;
27642;SDS011;15053;48.618;10.024;2023-06-04T02:09:03;5.55;;;2.70;;
27642;SDS011;15053;48.618;10.024;2023-06-04T02:11:30;4.95;;;2.78;;
27642;SDS011;15053;48.618;10.024;2023-06-04T02:13:56;8.40;;;2.83;;
27642;SDS011;15053;48.618;10.024;2023-06-04T02:16:23;4.20;;;2.65;;
27642;SDS011;15053;48.618;10.024;2023-06-04T02:18:49;8.18;;;2.40;;
27642;SDS011;15053;48.618;10.024;2023-06-04T02:21:16;4.28;;;2.33;;
27642;SDS011;15053;48.618;10.024;2023-06-04T02:23:42;4.78;;;2.53;;
27642;SDS011;15053;48.618;10.024;2023-06-04T02:26:09;4.13;;;2.47;;
27642;SDS011;15053;48.618;10.024;2023-06-04T02:28:37;6.90;;;2.78;;
27642;SDS011;15053;48.618;10.024;2023-06-04T02:31:03;4.53;;;2.20;;
27642;SDS011;15053;48.618;10.024;2023-06-04T02:33:31;4.88;;;2.30;;
27642;SDS011;15053;48.618;10.024;2023-06-04T02:35:58;3.75;;;2.13;;
27642;SDS011;15053;48.618;10.024;2023-06-04T02:38:24;3.97;;;2.47;;
27642;SDS011;15053;48.618;10.024;2023-06-04T02:40:51;4.47;;;2.53;;
27642;SDS011;15053;48.618;10.024;2023-06-04T02:43:18;5.03;;;2.88;;
27642;SDS011;15053;48.618;10.024;2023-06-04T02:45:44;5.30;;;2.63;;
27642;SDS011;15053;48.618;10.024;2023-06-04T02:48:11;3.42;;;2.10;;
27642;SDS011;15053;48.618;10.024;2023-06-04T02:50:37;3.90;;;2.42;;
27642;SDS011;15053;48.618;10.024;2023-06-04T02:53:05;4.55;;;2.30;;
27642;SDS011;15053;48.618;10.024;2023-06-04T02:55:32;4.00;;;2.22;;
27642;SDS011;15053;48.618;10.024;2023-06-04T02:57:59;7.03;;;2.45;;
27642;SDS011;15053;48.618;10.024;2023-06-04T03:00:26;3.45;;;2.38;;
27642;SDS011;15053;48.618;10.024;2023-06-04T03:02:53;4.75;;;2.90;;
27642;SDS011;15053;48.618;10.024;2023-06-04T03:05:27;5.03;;;2.90;;
27642;SDS011;15053;48.618;10.024;2023-06-04T03:07:57;4.90;;;2.95;;
27642;SDS011;15053;48.618;10.024;2023-06-04T03:10:24;4.63;;;2.70;;
27642;SDS011;15053;48.618;10.024;2023-06-04T03:12:52;4.43;;;2.80;;
27642;SDS011;15053;48.618;10.024;2023-06-04T03:15:19;6.00;;;2.38;;
27642;SDS011;15053;48.618;10.024;2023-06-04T03:17:46;3.45;;;2.35;;
27642;SDS011;15053;48.618;10.024;2023-06-04T03:20:13;4.53;;;2.67;;
27642;SDS011;15053;48.618;10.024;2023-06-04T03:22:39;5.68;;;2.45;;
27642;SDS011;15053;48.618;10.024;2023-06-04T03:25:07;5.18;;;2.67;;
27642;SDS011;15053;48.618;10.024;2023-06-04T03:27:34;6.30;;;3.08;;
27642;SDS011;15053;48.618;10.024;2023-06-04T03:30:03;7.55;;;3.20;;
27642;SDS011;15053;48.618;10.024;2023-06-04T03:32:44;5.15;;;2.63;;
27642;SDS011;15053;48.618;10.024;2023-06-04T03:35:12;7.53;;;2.60;;
27642;SDS011;15053;48.618;10.024;2023-06-04T03:37:39;5.07;;;2.60;;
27642;SDS011;15053;48.618;10.024;2023-06-04T03:40:06;4.38;;;2.50;;
27642;SDS011;15053;48.618;10.024;2023-06-04T03:42:37;4.95;;;2.30;;
27642;SDS011;15053;48.618;10.024;2023-06-04T03:45:03;4.32;;;2.40;;
27642;SDS011;15053;48.618;10.024;2023-06-04T03:47:31;5.18;;;2.67;;
27642;SDS011;15053;48.618;10.024;2023-06-04T03:49:58;3.40;;;2.25;;
27642;SDS011;15053;48.618;10.024;2023-06-04T03:52:25;7.90;;;2.40;;
27642;SDS011;15053;48.618;10.024;2023-06-04T03:54:54;3.97;;;2.45;;
27642;SDS011;15053;48.618;10.024;2023-06-04T03:57:21;4.68;;;2.53;;
27642;SDS011;15053;48.618;10.024;2023-06-04T03:59:47;5.90;;;2.78;;
27642;SDS011;15053;48.618;10.024;2023-06-04T04:02:14;4.97;;;2.67;;
27642;SDS011;15053;48.618;10.024;2023-06-04T04:04:41;5.03;;;2.60;;
27642;SDS011;15053;48.618;10.024;2023-06-04T04:07:08;4.10;;;2.90;;
27642;SDS011;15053;48.618;10.024;2023-06-04T04:09:34;5.38;;;2.63;;
27642;SDS011;15053;48.618;10.024;2023-06-04T04:12:03;4.45;;;2.85;;
27642;SDS011;15053;48.618;10.024;2023-06-04T04:14:31;6.63;;;2.70;;
27642;SDS011;15053;48.618;10.024;2023-06-04T04:16:58;5.22;;;2.67;;
27642;SDS011;15053;48.618;10.024;2023-06-04T04:19:25;5.97;;;2.72;;
27642;SDS011;15053;48.618;10.024;2023-06-04T04:21:52;7.20;;;3.00;;
27642;SDS011;15053;48.618;10.024;2023-06-04T04:24:27;3.92;;;2.63;;
27642;SDS011;15053;48.618;10.024;2023-06-04T04:26:59;3.42;;;3.05;;
27642;SDS011;15053;48.618;10.024;2023-06-04T04:29:26;4.07;;;2.50;;
27642;SDS011;15053;48.618;10.024;2023-06-04T04:31:54;4.97;;;2.97;;
27642;SDS011;15053;48.618;10.024;2023-06-04T04:34:25;5.65;;;2.65;;
27642;SDS011;15053;48.618;10.024;2023-06-04T04:36:53;6.95;;;2.97;;
27642;SDS011;15053;48.618;10.024;2023-06-04T04:39:22;4.47;;;2.67;;
27642;SDS011;15053;48.618;10.024;2023-06-04T04:41:53;4.10;;;1.75;;
27642;SDS011;15053;48.618;10.024;2023-06-04T04:44:20;6.82;;;3.03;;
27642;SDS011;15053;48.618;10.024;2023-06-04T04:46:48;5.20;;;2.88;;
27642;SDS011;15053;48.618;10.024;2023-06-04T04:49:15;3.17;;;2.30;;
27642;SDS011;15053;48.618;10.024;2023-06-04T04:51:42;6.10;;;2.85;;
27642;SDS011;15053;48.618;10.024;2023-06-04T04:54:08;5.43;;;2.65;;
27642;SDS011;15053;48.618;10.024;2023-06-04T04:56:35;5.90;;;2.88;;
27642;SDS011;15053;48.618;10.024;2023-06-04T04:59:03;6.85;;;2.78;;
27642;SDS011;15053;48.618;10.024;2023-06-04T05:01:30;5.03;;;2.90;;
27642;SDS011;15053;48.618;10.024;2023-06-04T05:03:57;4.95;;;2.67;;
27642;SDS011;15053;48.618;10.024;2023-06-04T05:06:23;3.78;;;2.72;;
27642;SDS011;15053;48.618;10.024;2023-06-04T05:08:50;4.53;;;2.63;;
27642;SDS011;15053;48.618;10.024;2023-06-04T05:11:18;4.88;;;2.75;;
27642;SDS011;15053;48.618;10.024;2023-06-04T05:13:46;4.53;;;2.67;;
27642;SDS011;15053;48.618;10.024;2023-06-04T05:16:12;4.20;;;2.38;;
27642;SDS011;15053;48.618;10.024;2023-06-04T05:18:41;5.72;;;3.13;;
27642;SDS011;15053;48.618;10.024;2023-06-04T05:21:10;4.68;;;2.50;;
27642;SDS011;15053;48.618;10.024;2023-06-04T05:23:43;2.75;;;2.50;;
27642;SDS011;15053;48.618;10.024;2023-06-04T05:26:11;3.80;;;2.55;;
27642;SDS011;15053;48.618;10.024;2023-06-04T05:28:38;3.90;;;2.47;;
27642;SDS011;15053;48.618;10.024;2023-06-04T05:31:04;9.35;;;3.05;;
27642;SDS011;15053;48.618;10.024;2023-06-04T05:33:33;6.53;;;2.70;;
27642;SDS011;15053;48.618;10.024;2023-06-04T05:36:04;3.75;;;2.67;;
27642;SDS011;15053;48.618;10.024;2023-06-04T05:38:37;4.28;;;2.88;;
27642;SDS011;15053;48.618;10.024;2023-06-04T05:41:07;4.60;;;3.05;;
27642;SDS011;15053;48.618;10.024;2023-06-04T05:43:36;3.70;;;2.53;;
27642;SDS011;15053;48.618;10.024;2023-06-04T05:46:04;6.00;;;2.58;;
27642;SDS011;15053;48.618;10.024;2023-06-04T05:48:32;7.45;;;3.00;;
27642;SDS011;15053;48.618;10.024;2023-06-04T05:50:59;3.75;;;2.55;;
27642;SDS011;15053;48.618;10.024;2023-06-04T05:53:26;4.15;;;2.75;;
27642;SDS011;15053;48.618;10.024;2023-06-04T05:55:52;4.47;;;2.80;;
27642;SDS011;15053;48.618;10.024;2023-06-04T05:58:19;4.10;;;2.65;;
27642;SDS011;15053;48.618;10.024;2023-06-04T06:00:46;10.13;;;2.58;;
27642;SDS011;15053;48.618;10.024;2023-06-04T06:03:14;4.07;;;2.92;;
27642;SDS011;15053;48.618;10.024;2023-06-04T06:05:45;5.03;;;2.90;;
27642;SDS011;15053;48.618;10.024;2023-06-04T06:08:13;6.03;;;3.00;;
27642;SDS011;15053;48.618;10.024;2023-06-04T06:10:41;4.35;;;2.80;;
27642;SDS011;15053;48.618;10.024;2023-06-04T06:13:08;4.60;;;2.75;;
27642;SDS011;15053;48.618;10.024;2023-06-04T06:15:35;3.95;;;2.80;;
27642;SDS011;15053;48.618;10.024;2023-06-04T06:18:01;5.53;;;3.17;;
27642;SDS011;15053;48.618;10.024;2023-06-04T06:20:28;4.70;;;2.78;;
27642;SDS011;15053;48.618;10.024;2023-06-04T06:22:55;5.63;;;3.10;;
27642;SDS011;15053;48.618;10.024;2023-06-04T06:25:23;6.82;;;2.65;;
27642;SDS011;15053;48.618;10.024;2023-06-04T06:27:55;2.97;;;2.67;;
27642;SDS011;15053;48.618;10.024;2023-06-04T06:30:23;4.38;;;2.47;;
27642;SDS011;15053;48.618;10.024;2023-06-04T06:32:50;5.40;;;3.65;;
27642;SDS011;15053;48.618;10.024;2023-06-04T06:35:20;5.35;;;3.20;;
27642;SDS011;15053;48.618;10.024;2023-06-04T06:37:46;5.80;;;3.17;;
27642;SDS011;15053;48.618;10.024;2023-06-04T06:40:13;3.72;;;2.92;;
27642;SDS011;15053;48.618;10.024;2023-06-04T06:42:39;7.40;;;3.00;;
27642;SDS011;15053;48.618;10.024;2023-06-04T06:45:06;7.43;;;3.65;;
27642;SDS011;15053;48.618;10.024;2023-06-04T06:47:33;5.07;;;3.10;;
27642;SDS011;15053;48.618;10.024;2023-06-04T06:49:59;4.15;;;2.92;;
27642;SDS011;15053;48.618;10.024;2023-06-04T06:52:26;9.57;;;2.90;;
27642;SDS011;15053;48.618;10.024;2023-06-04T06:54:52;5.28;;;3.30;;
27642;SDS011;15053;48.618;10.024;2023-06-04T06:57:19;7.47;;;3.63;;
27642;SDS011;15053;48.618;10.024;2023-06-04T06:59:45;4.40;;;2.75;;
27642;SDS011;15053;48.618;10.024;2023-06-04T07:02:12;5.90;;;2.72;;
27642;SDS011;15053;48.618;10.024;2023-06-04T07:04:39;5.15;;;3.03;;
27642;SDS011;15053;48.618;10.024;2023-06-04T07:07:05;4.78;;;2.85;;
27642;SDS011;15053;48.618;10.024;2023-06-04T07:09:32;5.75;;;3.65;;
27642;SDS011;15053;48.618;10.024;2023-06-04T07:11:58;5.60;;;2.83;;
27642;SDS011;15053;48.618;10.024;2023-06-04T07:14:25;3.05;;;2.50;;
27642;SDS011;15053;48.618;10.024;2023-06-04T07:16:51;4.30;;;2.78;;
27642;SDS011;15053;48.618;10.024;2023-06-04T07:19:18;9.93;;;2.95;;
27642;SDS011;15053;48.618;10.024;2023-06-04T07:21:44;5.40;;;2.90;;
27642;SDS011;15053;48.618;10.024;2023-06-04T07:24:11;4.75;;;2.70;;
27642;SDS011;15053;48.618;10.024;2023-06-04T07:26:38;5.82;;;3.08;;
27642;SDS011;15053;48.618;10.024;2023-06-04T07:29:04;4.25;;;3.05;;
27642;SDS011;15053;48.618;10.024;2023-06-04T07:31:31;7.45;;;3.22;;
27642;SDS011;15053;48.618;10.024;2023-06-04T07:33:58;5.28;;;3.08;;
27642;SDS011;15053;48.618;10.024;2023-06-04T07:36:24;7.25;;;3.10;;
27642;SDS011;15053;48.618;10.024;2023-06-04T07:38:51;8.30;;;3.28;;
27642;SDS011;15053;48.618;10.024;2023-06-04T07:41:17;4.32;;;2.92;;
27642;SDS011;15053;48.618;10.024;2023-06-04T07:43:44;8.13;;;3.45;;
27642;SDS011;15053;48.618;10.024;2023-06-04T07:46:11;5.47;;;3.10;;
27642;SDS011;15053;48.618;10.024;2023-06-04T07:48:38;4.15;;;2.95;;
27642;SDS011;15053;48.618;10.024;2023-06-04T07:51:04;7.00;;;3.30;;
27642;SDS011;15053;48.618;10.024;2023-06-04T07:53:31;7.20;;;3.53;;
27642;SDS011;15053;48.618;10.024;2023-06-04T07:55:57;7.68;;;3.47;;
27642;SDS011;15053;48.618;10.024;2023-06-04T07:58:24;5.65;;;3.17;;
27642;SDS011;15053;48.618;10.024;2023-06-04T08:00:51;4.72;;;2.75;;
27642;SDS011;15053;48.618;10.024;2023-06-04T08:03:18;6.05;;;3.10;;
27642;SDS011;15053;48.618;10.024;2023-06-04T08:05:47;5.00;;;3.25;;
27642;SDS011;15053;48.618;10.024;2023-06-04T08:08:13;4.15;;;2.78;;
27642;SDS011;15053;48.618;10.024;2023-06-04T08:10:40;7.68;;;5.07;;
27642;SDS011;15053;48.618;10.024;2023-06-04T08:13:07;8.48;;;3.63;;
27642;SDS011;15053;48.618;10.024;2023-06-04T08:15:34;4.57;;;3.10;;
27642;SDS011;15053;48.618;10.024;2023-06-04T08:18:01;4.38;;;2.90;;
27642;SDS011;15053;48.618;10.024;2023-06-04T08:20:28;4.70;;;2.70;;
27642;SDS011;15053;48.618;10.024;2023-06-04T08:22:54;4.40;;;2.80;;
27642;SDS011;15053;48.618;10.024;2023-06-04T08:25:21;4.72;;;2.85;;
27642;SDS011;15053;48.618;10.024;2023-06-04T08:27:48;4.93;;;2.60;;
27642;SDS011;15053;48.618;10.024;2023-06-04T08:30:14;5.07;;;2.58;;
27642;SDS011;15053;48.618;10.024;2023-06-04T08:32:41;4.25;;;2.90;;
27642;SDS011;15053;48.618;10.024;2023-06-04T08:35:07;3.25;;;2.55;;
27642;SDS011;15053;48.618;10.024;2023-06-04T08:37:35;4.97;;;3.20;;
27642;SDS011;15053;48.618;10.024;2023-06-04T08:40:01;7.50;;;3.17;;
27642;SDS011;15053;48.618;10.024;2023-06-04T08:42:31;4.50;;;2.72;;
27642;SDS011;15053;48.618;10.024;2023-06-04T08:45:03;4.47;;;2.80;;
27642;SDS011;15053;48.618;10.024;2023-06-04T08:47:32;3.67;;;2.45;;
27642;SDS011;15053;48.618;10.024;2023-06-04T08:50:01;4.60;;;2.78;;
27642;SDS011;15053;48.618;10.024;2023-06-04T08:52:28;5.18;;;3.15;;
27642;SDS011;15053;48.618;10.024;2023-06-04T08:54:55;3.63;;;3.10;;
27642;SDS011;15053;48.618;10.024;2023-06-04T08:57:23;4.88;;;3.00;;
27642;SDS011;15053;48.618;10.024;2023-06-04T08:59:49;4.78;;;3.30;;
27642;SDS011;15053;48.618;10.024;2023-06-04T09:02:17;6.65;;;2.83;;
27642;SDS011;15053;48.618;10.024;2023-06-04T09:04:44;5.85;;;3.45;;
27642;SDS011;15053;48.618;10.024;2023-06-04T09:07:11;5.07;;;3.10;;
27642;SDS011;15053;48.618;10.024;2023-06-04T09:09:39;4.00;;;3.20;;
27642;SDS011;15053;48.618;10.024;2023-06-04T09:12:10;4.70;;;3.60;;
27642;SDS011;15053;48.618;10.024;2023-06-04T09:14:37;5.32;;;3.63;;
27642;SDS011;15053;48.618;10.024;2023-06-04T09:17:04;7.60;;;3.17;;
27642;SDS011;15053;48.618;10.024;2023-06-04T09:19:31;5.60;;;3.67;;
27642;SDS011;15053;48.618;10.024;2023-06-04T09:21:58;10.98;;;3.65;;
27642;SDS011;15053;48.618;10.024;2023-06-04T09:24:44;11.40;;;3.45;;
27642;SDS011;15053;48.618;10.024;2023-06-04T09:27:19;7.20;;;3.47;;
27642;SDS011;15053;48.618;10.024;2023-06-04T09:29:55;9.48;;;4.05;;
27642;SDS011;15053;48.618;10.024;2023-06-04T09:32:26;4.88;;;3.30;;
27642;SDS011;15053;48.618;10.024;2023-06-04T09:37:20;5.47;;;3.72;;
27642;SDS011;15053;48.618;10.024;2023-06-04T09:39:54;8.43;;;4.35;;
27642;SDS011;15053;48.618;10.024;2023-06-04T09:42:23;6.25;;;3.58;;
27642;SDS011;15053;48.618;10.024;2023-06-04T09:44:50;5.03;;;3.08;;
27642;SDS011;15053;48.618;10.024;2023-06-04T09:47:17;6.68;;;3.75;;
27642;SDS011;15053;48.618;10.024;2023-06-04T09:49:44;4.57;;;3.40;;
27642;SDS011;15053;48.618;10.024;2023-06-04T09:52:11;5.38;;;4.03;;
27642;SDS011;15053;48.618;10.024;2023-06-04T09:54:41;5.47;;;4.05;;
27642;SDS011;15053;48.618;10.024;2023-06-04T09:57:17;5.82;;;3.63;;
27642;SDS011;15053;48.618;10.024;2023-06-04T09:59:48;7.03;;;4.20;;
27642;SDS011;15053;48.618;10.024;2023-06-04T10:02:20;6.30;;;3.72;;
27642;SDS011;15053;48.618;10.024;2023-06-04T10:04:54;6.93;;;3.78;;
27642;SDS011;15053;48.618;10.024;2023-06-04T10:07:23;7.28;;;3.85;;
27642;SDS011;15053;48.618;10.024;2023-06-04T10:09:51;6.88;;;4.40;;
27642;SDS011;15053;48.618;10.024;2023-06-04T10:12:29;5.88;;;3.60;;
27642;SDS011;15053;48.618;10.024;2023-06-04T10:15:07;5.55;;;4.00;;
27642;SDS011;15053;48.618;10.024;2023-06-04T10:17:37;5.78;;;4.30;;
27642;SDS011;15053;48.618;10.024;2023-06-04T10:20:06;5.95;;;3.90;;
27642;SDS011;15053;48.618;10.024;2023-06-04T10:22:34;8.57;;;4.32;;
27642;SDS011;15053;48.618;10.024;2023-06-04T10:25:01;5.93;;;4.00;;
27642;SDS011;15053;48.618;10.024;2023-06-04T10:27:32;6.43;;;4.05;;
27642;SDS011;15053;48.618;10.024;2023-06-04T10:30:04;4.63;;;4.00;;
27642;SDS011;15053;48.618;10.024;2023-06-04T10:32:31;6.37;;;3.93;;
27642;SDS011;15053;48.618;10.024;2023-06-04T10:34:58;4.80;;;3.90;;
27642;SDS011;15053;48.618;10.024;2023-06-04T10:37:25;5.30;;;3.65;;
27642;SDS011;15053;48.618;10.024;2023-06-04T10:39:56;4.45;;;3.70;;
27642;SDS011;15053;48.618;10.024;2023-06-04T10:42:23;6.25;;;4.30;;
27642;SDS011;15053;48.618;10.024;2023-06-04T10:44:51;6.65;;;4.45;;
27642;SDS011;15053;48.618;10.024;2023-06-04T10:47:26;5.38;;;3.30;;
27642;SDS011;15053;48.618;10.024;2023-06-04T10:49:54;6.25;;;3.85;;
27642;SDS011;15053;48.618;10.024;2023-06-04T10:52:21;7.50;;;3.78;;
27642;SDS011;15053;48.618;10.024;2023-06-04T10:54:48;5.88;;;3.70;;
27642;SDS011;15053;48.618;10.024;2023-06-04T10:57:15;10.52;;;3.97;;
27642;SDS011;15053;48.618;10.024;2023-06-04T11:02:23;6.07;;;3.67;;
27642;SDS011;15053;48.618;10.024;2023-06-04T11:04:59;5.53;;;4.15;;
27642;SDS011;15053;48.618;10.024;2023-06-04T11:07:27;5.97;;;4.05;;
27642;SDS011;15053;48.618;10.024;2023-06-04T11:09:54;6.43;;;4.35;;
27642;SDS011;15053;48.618;10.024;2023-06-04T11:12:21;6.07;;;3.95;;
27642;SDS011;15053;48.618;10.024;2023-06-04T11:14:57;6.20;;;4.28;;
27642;SDS011;15053;48.618;10.024;2023-06-04T11:17:25;10.18;;;5.43;;
27642;SDS011;15053;48.618;10.024;2023-06-04T11:19:52;8.45;;;4.25;;
27642;SDS011;15053;48.618;10.024;2023-06-04T11:22:21;7.72;;;4.13;;
27642;SDS011;15053;48.618;10.024;2023-06-04T11:24:48;8.20;;;3.72;;
27642;SDS011;15053;48.618;10.024;2023-06-04T11:27:15;7.75;;;5.47;;
27642;SDS011;15053;48.618;10.024;2023-06-04T11:30:01;6.82;;;4.28;;
27642;SDS011;15053;48.618;10.024;2023-06-04T11:32:28;6.45;;;4.18;;
27642;SDS011;15053;48.618;10.024;2023-06-04T11:35:04;13.80;;;9.02;;
27642;SDS011;15053;48.618;10.024;2023-06-04T11:37:32;6.90;;;5.32;;
27642;SDS011;15053;48.618;10.024;2023-06-04T11:40:00;5.85;;;4.90;;
27642;SDS011;15053;48.618;10.024;2023-06-04T11:42:27;6.13;;;4.97;;
27642;SDS011;15053;48.618;10.024;2023-06-04T11:44:56;10.20;;;4.20;;
27642;SDS011;15053;48.618;10.024;2023-06-04T11:47:23;5.97;;;4.10;;
27642;SDS011;15053;48.618;10.024;2023-06-04T11:49:56;8.98;;;4.50;;
27642;SDS011;15053;48.618;10.024;2023-06-04T11:52:23;6.80;;;3.90;;
27642;SDS011;15053;48.618;10.024;2023-06-04T11:54:50;6.85;;;4.38;;
27642;SDS011;15053;48.618;10.024;2023-06-04T11:57:16;6.55;;;4.80;;
27642;SDS011;15053;48.618;10.024;2023-06-04T11:59:43;4.50;;;3.90;;
27642;SDS011;15053;48.618;10.024;2023-06-04T12:02:10;6.47;;;3.90;;
27642;SDS011;15053;48.618;10.024;2023-06-04T12:04:37;5.65;;;4.45;;
27642;SDS011;15053;48.618;10.024;2023-06-04T12:07:03;6.20;;;4.30;;
27642;SDS011;15053;48.618;10.024;2023-06-04T12:09:32;6.50;;;4.38;;
27642;SDS011;15053;48.618;10.024;2023-06-04T12:12:05;4.93;;;3.45;;
27642;SDS011;15053;48.618;10.024;2023-06-04T12:14:33;5.78;;;4.00;;
27642;SDS011;15053;48.618;10.024;2023-06-04T12:17:01;5.95;;;4.00;;
27642;SDS011;15053;48.618;10.024;2023-06-04T12:19:31;5.82;;;4.20;;
27642;SDS011;15053;48.618;10.024;2023-06-04T12:22:01;9.02;;;4.50;;
27642;SDS011;15053;48.618;10.024;2023-06-04T12:24:30;8.10;;;4.22;;
27642;SDS011;15053;48.618;10.024;2023-06-04T12:27:04;5.43;;;3.72;;
27642;SDS011;15053;48.618;10.024;2023-06-04T12:29:34;4.22;;;3.38;;
27642;SDS011;15053;48.618;10.024;2023-06-04T12:32:05;8.60;;;4.10;;
27642;SDS011;15053;48.618;10.024;2023-06-04T12:34:41;5.85;;;3.80;;
27642;SDS011;15053;48.618;10.024;2023-06-04T12:37:08;6.30;;;3.92;;
27642;SDS011;15053;48.618;10.024;2023-06-04T12:39:34;6.05;;;3.88;;
27642;SDS011;15053;48.618;10.024;2023-06-04T12:42:04;11.50;;;5.97;;
27642;SDS011;15053;48.618;10.024;2023-06-04T12:44:32;8.27;;;4.07;;
27642;SDS011;15053;48.618;10.024;2023-06-04T12:47:01;8.65;;;4.53;;
27642;SDS011;15053;48.618;10.024;2023-06-04T12:49:28;5.70;;;4.13;;
27642;SDS011;15053;48.618;10.024;2023-06-04T12:51:55;5.93;;;4.20;;
27642;SDS011;15053;48.618;10.024;2023-06-04T12:54:21;5.32;;;3.83;;
27642;SDS011;15053;48.618;10.024;2023-06-04T12:56:48;6.45;;;4.82;;
27642;SDS011;15053;48.618;10.024;2023-06-04T12:59:15;6.38;;;4.30;;
27642;SDS011;15053;48.618;10.024;2023-06-04T13:01:42;7.13;;;4.80;;
27642;SDS011;15053;48.618;10.024;2023-06-04T13:04:09;5.45;;;4.03;;
27642;SDS011;15053;48.618;10.024;2023-06-04T13:06:36;6.90;;;5.75;;
27642;SDS011;15053;48.618;10.024;2023-06-04T13:09:03;6.82;;;4.95;;
27642;SDS011;15053;48.618;10.024;2023-06-04T13:11:38;15.60;;;7.25;;
27642;SDS011;15053;48.618;10.024;2023-06-04T13:14:06;11.75;;;8.43;;
27642;SDS011;15053;48.618;10.024;2023-06-04T13:16:33;12.43;;;8.20;;
27642;SDS011;15053;48.618;10.024;2023-06-04T13:19:00;13.25;;;7.65;;
27642;SDS011;15053;48.618;10.024;2023-06-04T13:21:27;19.13;;;13.02;;
27642;SDS011;15053;48.618;10.024;2023-06-04T13:23:53;9.95;;;7.97;;
27642;SDS011;15053;48.618;10.024;2023-06-04T13:26:20;8.82;;;7.35;;
27642;SDS011;15053;48.618;10.024;2023-06-04T13:28:48;19.95;;;12.52;;
27642;SDS011;15053;48.618;10.024;2023-06-04T13:31:15;18.08;;;13.68;;
27642;SDS011;15053;48.618;10.024;2023-06-04T13:33:41;15.80;;;10.93;;
27642;SDS011;15053;48.618;10.024;2023-06-04T13:36:08;14.82;;;5.97;;
27642;SDS011;15053;48.618;10.024;2023-06-04T13:38:35;7.10;;;4.82;;
27642;SDS011;15053;48.618;10.024;2023-06-04T13:41:02;6.00;;;4.22;;
27642;SDS011;15053;48.618;10.024;2023-06-04T13:43:28;8.30;;;4.25;;
27642;SDS011;15053;48.618;10.024;2023-06-04T13:45:55;4.68;;;4.18;;
27642;SDS011;15053;48.618;10.024;2023-06-04T13:48:21;7.50;;;6.28;;
27642;SDS011;15053;48.618;10.024;2023-06-04T13:50:48;7.75;;;5.28;;
27642;SDS011;15053;48.618;10.024;2023-06-04T13:53:14;13.05;;;8.68;;
27642;SDS011;15053;48.618;10.024;2023-06-04T13:55:41;18.08;;;12.13;;
27642;SDS011;15053;48.618;10.024;2023-06-04T13:58:07;14.63;;;9.93;;
27642;SDS011;15053;48.618;10.024;2023-06-04T14:00:34;35.60;;;25.42;;
27642;SDS011;15053;48.618;10.024;2023-06-04T14:03:01;28.15;;;18.33;;
27642;SDS011;15053;48.618;10.024;2023-06-04T14:05:27;10.88;;;8.15;;
27642;SDS011;15053;48.618;10.024;2023-06-04T14:07:54;13.30;;;9.90;;
27642;SDS011;15053;48.618;10.024;2023-06-04T14:10:21;9.57;;;5.35;;
27642;SDS011;15053;48.618;10.024;2023-06-04T14:12:48;9.38;;;5.53;;
27642;SDS011;15053;48.618;10.024;2023-06-04T14:15:14;7.18;;;4.38;;
27642;SDS011;15053;48.618;10.024;2023-06-04T14:17:41;9.60;;;6.90;;
27642;SDS011;15053;48.618;10.024;2023-06-04T14:20:09;7.03;;;4.68;;
27642;SDS011;15053;48.618;10.024;2023-06-04T14:22:36;5.75;;;4.45;;
27642;SDS011;15053;48.618;10.024;2023-06-04T14:25:04;7.75;;;5.25;;
27642;SDS011;15053;48.618;10.024;2023-06-04T14:27:31;6.07;;;4.28;;
27642;SDS011;15053;48.618;10.024;2023-06-04T14:29:58;7.55;;;5.78;;
27642;SDS011;15053;48.618;10.024;2023-06-04T14:32:25;10.05;;;5.82;;
27642;SDS011;15053;48.618;10.024;2023-06-04T14:34:51;14.68;;;9.32;;
27642;SDS011;15053;48.618;10.024;2023-06-04T14:37:18;11.30;;;8.23;;
27642;SDS011;15053;48.618;10.024;2023-06-04T14:39:46;11.48;;;7.28;;
27642;SDS011;15053;48.618;10.024;2023-06-04T14:42:13;14.35;;;9.35;;
27642;SDS011;15053;48.618;10.024;2023-06-04T14:44:40;10.55;;;8.43;;
27642;SDS011;15053;48.618;10.024;2023-06-04T14:47:06;16.55;;;12.30;;